Time;durP1;ratioP1;P1;durP2;ratioP2;P2;SDS_P1;SDS_P2;PMS_P1;PMS_P2;Temp;Humidity;BMP_temperature;BMP_pressure;BME280_temperature;BME280_humidity;BME280_pressure;Samples;Min_cycle;Max_cycle;Signal;HPM_P1;HPM_P2
2023/10/29 00:01:20;;;;;;;2.03;2.03;;;;;;;12.48;91.56;99134.06;5075043;28;20194;-68
2023/10/29 00:03:47;;;;;;;2.43;2.23;;;;;;;12.45;91.56;99129.13;5075016;28;20186;-68
2023/10/29 00:06:13;;;;;;;2.80;2.80;;;;;;;12.44;91.50;99118.59;5075286;28;20198;-68
2023/10/29 00:08:40;;;;;;;2.23;2.03;;;;;;;12.49;91.19;99105.41;5075141;28;20190;-68
2023/10/29 00:11:07;;;;;;;2.20;2.20;;;;;;;12.52;91.01;99097.78;5074785;28;20236;-68
2023/10/29 00:13:34;;;;;;;2.20;2.03;;;;;;;12.57;90.27;99089.13;5074757;28;20564;-68
2023/10/29 00:16:00;;;;;;;2.53;2.43;;;;;;;12.68;89.76;99100.09;5074850;28;20229;-68
2023/10/29 00:18:26;;;;;;;2.10;2.10;;;;;;;12.63;90.17;99097.19;5074673;28;20197;-68
2023/10/29 00:20:53;;;;;;;2.17;2.17;;;;;;;12.66;89.63;99090.59;5074621;28;20216;-68
2023/10/29 00:23:20;;;;;;;2.93;2.53;;;;;;;12.70;89.81;99092.66;5074585;28;20201;-67
2023/10/29 00:25:46;;;;;;;2.73;2.73;;;;;;;12.68;89.74;99092.06;5074953;28;20613;-68
2023/10/29 00:28:13;;;;;;;7.90;2.20;;;;;;;12.70;89.72;99089.97;5074699;28;20244;-68
2023/10/29 00:30:39;;;;;;;1.87;1.70;;;;;;;12.77;89.46;99096.16;5073374;28;20191;-68
2023/10/29 00:33:06;;;;;;;5.10;2.03;;;;;;;12.80;88.87;99079.66;5073840;28;20658;-67
2023/10/29 00:35:33;;;;;;;2.03;2.03;;;;;;;12.83;88.60;99086.47;5074111;28;20210;-69
2023/10/29 00:37:59;;;;;;;1.90;1.90;;;;;;;12.83;88.57;99081.94;5074456;28;20547;-68
2023/10/29 00:40:30;;;;;;;3.30;2.37;;;;;;;12.85;88.50;99089.78;5074164;28;20218;-68
2023/10/29 00:42:58;;;;;;;2.43;2.43;;;;;;;12.85;88.21;99072.88;5074244;28;20171;-67
2023/10/29 00:45:25;;;;;;;2.70;2.60;;;;;;;12.96;88.00;99070.38;5074088;28;20232;-67
2023/10/29 00:47:51;;;;;;;2.90;1.80;;;;;;;13.06;87.04;99086.91;5074486;28;20218;-67
2023/10/29 00:50:18;;;;;;;2.77;2.57;;;;;;;13.07;86.94;99093.09;5074019;28;20273;-67
2023/10/29 00:52:45;;;;;;;2.13;2.13;;;;;;;13.07;87.05;99074.31;5072727;28;20194;-67
2023/10/29 00:55:12;;;;;;;2.40;2.40;;;;;;;13.08;86.82;99087.50;5072582;28;20194;-67
2023/10/29 00:57:39;;;;;;;3.70;2.77;;;;;;;13.09;86.66;99067.69;5074098;28;20566;-68
2023/10/29 01:00:07;;;;;;;2.47;2.40;;;;;;;13.12;86.37;99071.84;5073094;28;20194;-67
2023/10/29 01:02:34;;;;;;;3.23;2.27;;;;;;;13.14;86.27;99075.16;5073825;28;20178;-67
2023/10/29 01:05:01;;;;;;;4.73;1.97;;;;;;;13.14;86.05;99056.38;5073802;28;20229;-67
2023/10/29 01:07:30;;;;;;;1.87;1.87;;;;;;;13.19;85.68;99070.81;5072406;28;20206;-67
2023/10/29 01:10:00;;;;;;;2.47;2.37;;;;;;;13.16;86.00;99079.25;5073653;28;20186;-67
2023/10/29 01:12:27;;;;;;;2.23;2.13;;;;;;;13.25;84.56;99055.72;5072599;28;20190;-67
2023/10/29 01:14:54;;;;;;;1.80;1.80;;;;;;;13.30;85.29;99085.44;5074139;28;20641;-67
2023/10/29 01:17:21;;;;;;;4.70;1.63;;;;;;;13.31;85.22;99073.69;5073316;28;20221;-67
2023/10/29 01:19:48;;;;;;;5.67;2.53;;;;;;;13.34;85.17;99078.63;5073542;28;20193;-67
2023/10/29 01:22:14;;;;;;;1.93;1.83;;;;;;;13.32;85.44;99061.91;5073496;28;20190;-67
2023/10/29 01:24:41;;;;;;;1.87;1.87;;;;;;;13.36;85.22;99052.41;5073496;28;20189;-67
2023/10/29 01:27:07;;;;;;;1.87;1.87;;;;;;;13.32;85.75;99047.66;5072126;28;20210;-71
2023/10/29 01:29:34;;;;;;;2.10;1.87;;;;;;;13.25;85.86;99042.28;5073467;28;20690;-71
2023/10/29 01:32:01;;;;;;;1.70;1.70;;;;;;;13.23;85.84;99026.44;5073496;28;20218;-71
2023/10/29 01:34:27;;;;;;;2.50;2.33;;;;;;;13.22;86.08;99032.00;5072135;28;20639;-71
2023/10/29 01:36:54;;;;;;;3.60;2.13;;;;;;;13.23;86.04;99044.38;5073163;28;20225;-71
2023/10/29 01:39:20;;;;;;;2.50;2.50;;;;;;;13.30;85.14;99049.72;5073315;28;20187;-71
2023/10/29 01:41:47;;;;;;;2.17;1.90;;;;;;;13.31;84.99;99038.78;5073288;28;20191;-71
2023/10/29 01:44:13;;;;;;;2.00;2.00;;;;;;;13.34;84.84;99041.03;5073784;28;20225;-71
2023/10/29 01:46:40;;;;;;;1.60;1.57;;;;;;;13.35;84.83;99041.88;5071322;28;20210;-70
2023/10/29 01:49:09;;;;;;;2.40;2.30;;;;;;;13.41;83.91;99043.72;5073480;28;20528;-71
2023/10/29 01:51:36;;;;;;;2.07;2.07;;;;;;;13.48;83.63;99036.47;5073137;28;20281;-71
2023/10/29 01:54:03;;;;;;;2.77;2.77;;;;;;;13.48;83.71;99033.78;5073688;28;20194;-71
2023/10/29 01:56:29;;;;;;;3.70;1.57;;;;;;;13.47;83.12;99041.00;5073577;28;20582;-70
2023/10/29 01:58:57;;;;;;;4.10;1.50;;;;;;;13.45;83.31;99034.22;5071852;28;20615;-70
2023/10/29 02:01:24;;;;;;;1.93;1.93;;;;;;;13.55;82.55;99029.19;5073074;28;20190;-71
2023/10/29 02:03:50;;;;;;;1.50;1.50;;;;;;;13.55;82.81;99024.66;5073085;28;20221;-71
2023/10/29 02:06:18;;;;;;;3.13;1.70;;;;;;;13.55;82.73;99029.19;5073215;28;20294;-70
2023/10/29 02:08:45;;;;;;;6.13;2.33;;;;;;;13.53;82.95;99010.63;5073263;28;20718;-71
2023/10/29 02:11:13;;;;;;;1.63;1.60;;;;;;;13.53;83.54;98996.38;5071722;28;20194;-71
2023/10/29 02:13:40;;;;;;;2.07;2.03;;;;;;;13.55;83.70;98994.31;5072982;28;20207;-71
2023/10/29 02:16:08;;;;;;;2.47;2.30;;;;;;;13.52;83.85;98981.31;5071434;28;20246;-71
2023/10/29 02:18:36;;;;;;;2.10;2.00;;;;;;;13.57;83.47;98978.81;5073160;28;20189;-71
2023/10/29 02:21:02;;;;;;;7.10;2.50;;;;;;;13.55;83.41;98976.34;5072871;28;20244;-71
2023/10/29 02:23:29;;;;;;;1.93;1.80;;;;;;;13.53;83.96;98977.59;5072855;28;20182;-71
2023/10/29 02:25:55;;;;;;;2.13;2.00;;;;;;;13.48;83.65;98970.19;5072759;28;20194;-71
2023/10/29 02:28:22;;;;;;;5.90;1.70;;;;;;;13.45;84.65;98989.38;5073082;28;20190;-71
2023/10/29 02:30:50;;;;;;;1.93;1.83;;;;;;;13.39;84.41;98974.13;5073336;28;20260;-71
2023/10/29 02:33:16;;;;;;;1.70;1.70;;;;;;;13.40;84.56;98975.78;5072767;28;20179;-71
2023/10/29 02:35:43;;;;;;;1.80;1.80;;;;;;;13.40;84.63;98991.91;5071311;28;20191;-71
2023/10/29 02:38:09;;;;;;;6.80;2.60;;;;;;;13.36;85.16;98965.69;5072975;28;20220;-71
2023/10/29 02:40:36;;;;;;;3.03;2.43;;;;;;;13.37;85.16;98951.22;5071467;28;20202;-71
2023/10/29 02:43:03;;;;;;;2.60;2.40;;;;;;;13.30;85.59;98953.09;5072957;28;20182;-71
2023/10/29 02:45:30;;;;;;;7.63;2.47;;;;;;;13.28;85.16;98964.06;5072652;28;20183;-71
2023/10/29 02:47:56;;;;;;;2.30;2.30;;;;;;;13.28;85.35;98967.56;5072834;28;20210;-71
2023/10/29 02:50:23;;;;;;;1.93;1.90;;;;;;;13.22;85.95;98957.69;5072654;28;20273;-71
2023/10/29 02:52:50;;;;;;;1.83;1.83;;;;;;;13.23;85.76;98956.66;5073403;28;20186;-71
2023/10/29 02:55:16;;;;;;;2.30;2.20;;;;;;;13.21;85.38;98947.97;5071548;28;20202;-71
2023/10/29 02:57:42;;;;;;;1.83;1.83;;;;;;;13.23;85.79;98937.88;5073598;28;20230;-71
2023/10/29 03:00:09;;;;;;;5.80;2.10;;;;;;;13.25;85.13;98945.69;5076185;28;20187;-71
2023/10/29 03:02:36;;;;;;;5.13;1.87;;;;;;;13.22;85.47;98946.13;5076378;28;20182;-71
2023/10/29 03:05:02;;;;;;;2.13;2.13;;;;;;;13.21;85.63;98949.81;5076363;28;20281;-71
2023/10/29 03:07:30;;;;;;;1.77;1.67;;;;;;;13.27;84.72;98939.09;5074715;28;20214;-71
2023/10/29 03:09:57;;;;;;;1.97;1.97;;;;;;;13.26;85.17;98939.28;5076013;28;20261;-71
2023/10/29 03:12:23;;;;;;;3.07;1.90;;;;;;;13.27;84.79;98963.25;5076227;28;20194;-71
2023/10/29 03:14:49;;;;;;;1.90;1.90;;;;;;;13.32;84.78;98961.78;5075964;28;20182;-71
2023/10/29 03:17:16;;;;;;;2.53;1.50;;;;;;;13.31;84.72;98962.81;5075669;28;20210;-70
2023/10/29 03:19:44;;;;;;;2.87;1.67;;;;;;;13.44;83.46;98952.84;5075931;28;20541;-71
2023/10/29 03:22:10;;;;;;;1.60;1.60;;;;;;;13.42;83.73;98944.16;5075966;28;20529;-71
2023/10/29 03:24:37;;;;;;;1.73;1.67;;;;;;;13.43;83.82;98929.72;5075855;28;20274;-71
2023/10/29 03:27:04;;;;;;;2.07;2.07;;;;;;;13.44;83.46;98915.28;5074357;28;20211;-70
2023/10/29 03:29:31;;;;;;;1.60;1.50;;;;;;;13.52;82.95;98916.88;5075965;28;20228;-70
2023/10/29 03:31:57;;;;;;;2.43;2.10;;;;;;;13.49;82.94;98920.81;5075944;28;20182;-70
2023/10/29 03:34:24;;;;;;;2.63;2.43;;;;;;;13.54;82.63;98912.94;5075887;28;20193;-71
2023/10/29 03:36:50;;;;;;;2.23;1.70;;;;;;;13.63;82.36;98925.06;5075392;28;20214;-70
2023/10/29 03:39:17;;;;;;;1.93;1.93;;;;;;;13.57;82.58;98931.31;5076271;28;20588;-70
2023/10/29 03:41:43;;;;;;;1.77;1.67;;;;;;;13.62;82.19;98930.66;5075657;28;20216;-70
2023/10/29 03:44:10;;;;;;;1.40;1.40;;;;;;;13.57;82.79;98925.94;5075889;28;20189;-70
2023/10/29 03:46:36;;;;;;;1.50;1.50;;;;;;;13.58;82.57;98913.31;5075272;28;20701;-70
2023/10/29 03:49:03;;;;;;;1.90;1.90;;;;;;;13.64;82.28;98915.97;5075295;28;20198;-71
2023/10/29 03:51:29;;;;;;;2.70;2.60;;;;;;;13.61;82.77;98907.53;5075251;28;20186;-71
2023/10/29 03:53:56;;;;;;;1.63;1.63;;;;;;;13.59;82.60;98923.84;5073942;28;20201;-71
2023/10/29 03:56:23;;;;;;;2.20;2.20;;;;;;;13.64;82.14;98912.47;5075041;28;20302;-70
2023/10/29 03:58:49;;;;;;;1.37;1.30;;;;;;;13.69;82.11;98907.28;5075102;28;20194;-71
2023/10/29 04:01:16;;;;;;;2.43;1.30;;;;;;;13.75;81.95;98913.66;5075005;28;20727;-70
2023/10/29 04:03:46;;;;;;;2.80;1.20;;;;;;;13.74;81.89;98923.56;5074973;28;20240;-70
2023/10/29 04:06:13;;;;;;;1.67;1.67;;;;;;;13.70;82.22;98936.63;5075125;28;20214;-70
2023/10/29 04:08:39;;;;;;;3.43;3.43;;;;;;;13.73;82.39;98940.72;5074305;28;20183;-71
2023/10/29 04:11:06;;;;;;;1.43;1.37;;;;;;;13.74;82.28;98939.69;5074868;28;20265;-71
2023/10/29 04:13:32;;;;;;;1.30;1.30;;;;;;;13.72;82.44;98934.53;5075052;28;20187;-71
2023/10/29 04:15:59;;;;;;;1.40;1.30;;;;;;;13.81;81.75;98927.03;5074715;28;20206;-70
2023/10/29 04:18:27;;;;;;;1.30;1.30;;;;;;;13.77;81.85;98919.63;5075234;28;20277;-70
2023/10/29 04:20:54;;;;;;;1.90;1.30;;;;;;;13.86;81.51;98921.00;5074612;28;20221;-71
2023/10/29 04:23:22;;;;;;;1.40;1.40;;;;;;;13.88;81.00;98921.59;5075115;28;20186;-71
2023/10/29 04:25:48;;;;;;;1.80;1.80;;;;;;;13.88;80.82;98917.06;5074492;28;20720;-70
2023/10/29 04:28:15;;;;;;;1.40;1.40;;;;;;;13.97;80.55;98917.63;5074461;28;20183;-70
2023/10/29 04:30:41;;;;;;;2.13;2.03;;;;;;;13.99;80.54;98923.63;5074733;28;20187;-71
2023/10/29 04:33:08;;;;;;;1.50;1.40;;;;;;;13.99;80.84;98923.63;5074937;28;20183;-71
2023/10/29 04:35:34;;;;;;;1.90;1.30;;;;;;;13.98;81.10;98938.06;5074784;28;20663;-70
2023/10/29 04:38:01;;;;;;;3.07;1.80;;;;;;;13.96;80.12;98940.97;5074805;28;20293;-70
2023/10/29 04:40:27;;;;;;;1.10;1.10;;;;;;;14.01;80.42;98933.09;5074793;28;20653;-70
2023/10/29 04:42:54;;;;;;;1.80;1.80;;;;;;;13.98;80.56;98936.22;5074242;28;20190;-71
2023/10/29 04:45:20;;;;;;;3.67;1.60;;;;;;;13.94;80.33;98936.88;5074192;28;20186;-71
2023/10/29 04:47:47;;;;;;;1.53;1.53;;;;;;;14.01;79.97;98946.53;5072902;28;20225;-70
2023/10/29 04:50:13;;;;;;;1.90;1.90;;;;;;;14.03;80.13;98946.31;5074016;28;20218;-70
2023/10/29 04:52:40;;;;;;;1.93;1.83;;;;;;;13.98;80.20;98933.53;5074096;28;20183;-70
2023/10/29 04:55:07;;;;;;;1.33;1.23;;;;;;;14.04;79.91;98932.69;5074269;28;20179;-70
2023/10/29 04:57:33;;;;;;;1.37;1.37;;;;;;;14.01;80.07;98943.84;5074284;28;20655;-70
2023/10/29 05:00:00;;;;;;;1.20;1.20;;;;;;;14.09;79.81;98951.63;5074540;28;20232;-70
2023/10/29 05:02:27;;;;;;;1.70;1.70;;;;;;;14.04;80.17;98937.22;5073869;28;20202;-70
2023/10/29 05:04:54;;;;;;;1.30;1.30;;;;;;;14.01;79.98;98938.47;5074155;28;20224;-70
2023/10/29 05:07:21;;;;;;;4.27;1.40;;;;;;;13.97;80.21;98934.56;5074035;28;20206;-70
2023/10/29 05:09:47;;;;;;;2.43;1.47;;;;;;;14.00;80.01;98930.63;5074246;28;20183;-70
2023/10/29 05:12:15;;;;;;;2.60;1.33;;;;;;;13.99;80.05;98939.72;5074997;28;20607;-70
2023/10/29 05:14:41;;;;;;;8.23;1.40;;;;;;;13.96;79.74;98940.19;5074369;28;20242;-70
2023/10/29 05:17:07;;;;;;;1.73;1.63;;;;;;;13.97;80.02;98933.75;5073428;28;20221;-70
2023/10/29 05:19:34;;;;;;;3.73;1.80;;;;;;;13.94;80.17;98936.88;5073476;28;20187;-71
2023/10/29 05:22:00;;;;;;;1.63;1.63;;;;;;;13.95;80.31;98938.53;5073856;28;20233;-70
2023/10/29 05:24:27;;;;;;;1.40;1.40;;;;;;;13.94;80.03;98948.44;5073537;28;20237;-70
2023/10/29 05:26:53;;;;;;;2.40;1.00;;;;;;;14.04;79.80;98959.53;5073668;28;20206;-70
2023/10/29 05:29:21;;;;;;;2.23;1.40;;;;;;;14.00;79.68;98961.00;5074240;28;20189;-70
2023/10/29 05:31:47;;;;;;;3.80;1.50;;;;;;;14.00;80.38;98954.81;5073453;28;20183;-70
2023/10/29 05:34:14;;;;;;;3.67;1.30;;;;;;;14.01;79.82;98962.66;5073385;28;20190;-70
2023/10/29 05:36:41;;;;;;;1.30;1.30;;;;;;;14.04;79.57;98972.16;5073465;28;20206;-70
2023/10/29 05:39:09;;;;;;;4.80;1.47;;;;;;;14.05;79.38;98976.47;5073323;28;20194;-70
2023/10/29 05:41:36;;;;;;;1.43;1.43;;;;;;;14.03;79.50;98976.69;5073288;28;20631;-70
2023/10/29 05:44:03;;;;;;;1.67;1.63;;;;;;;14.03;79.43;98981.25;5073803;28;20186;-70
2023/10/29 05:46:29;;;;;;;3.40;1.70;;;;;;;14.12;78.78;98977.25;5073467;28;20213;-70
2023/10/29 05:48:56;;;;;;;1.60;1.50;;;;;;;14.21;78.09;98972.44;5073541;28;20178;-70
2023/10/29 05:51:22;;;;;;;1.30;1.30;;;;;;;14.27;77.99;98966.19;5073237;28;20232;-70
2023/10/29 05:53:49;;;;;;;1.70;1.60;;;;;;;14.22;77.98;98963.31;5073186;28;20179;-70
2023/10/29 05:56:18;;;;;;;3.70;1.40;;;;;;;14.18;78.22;98968.31;5073876;28;20293;-70
2023/10/29 05:58:44;;;;;;;1.40;1.40;;;;;;;14.23;77.55;98967.66;5073426;28;20224;-70
2023/10/29 06:01:11;;;;;;;5.60;1.70;;;;;;;14.24;77.25;98975.53;5073064;28;20194;-70
2023/10/29 06:03:37;;;;;;;1.20;1.10;;;;;;;14.29;76.85;98975.69;5073114;28;20185;-70
2023/10/29 06:06:04;;;;;;;6.23;1.50;;;;;;;14.27;77.45;98995.75;5073279;28;20259;-70
2023/10/29 06:08:31;;;;;;;1.10;1.10;;;;;;;14.27;77.24;99001.97;5073041;28;20531;-71
2023/10/29 06:10:57;;;;;;;1.70;1.70;;;;;;;14.31;77.19;98984.34;5073518;28;20627;-70
2023/10/29 06:13:24;;;;;;;1.20;1.20;;;;;;;14.24;77.58;98997.03;5073550;28;20198;-70
2023/10/29 06:15:50;;;;;;;5.53;1.53;;;;;;;14.26;76.97;98994.94;5073028;28;20205;-71
2023/10/29 06:18:17;;;;;;;1.20;1.20;;;;;;;14.26;77.45;99003.00;5073203;28;20190;-71
2023/10/29 06:20:43;;;;;;;6.53;2.03;;;;;;;14.31;77.59;99000.47;5073179;28;20221;-71
2023/10/29 06:23:10;;;;;;;2.63;1.50;;;;;;;14.29;76.35;98999.91;5072827;28;20244;-71
2023/10/29 06:25:37;;;;;;;4.27;1.60;;;;;;;14.31;76.59;99008.53;5072751;28;20194;-70
2023/10/29 06:28:03;;;;;;;1.60;1.60;;;;;;;14.45;75.89;99012.00;5073380;28;20677;-70
2023/10/29 06:30:30;;;;;;;1.50;1.50;;;;;;;14.38;75.88;99014.75;5072837;28;20236;-70
2023/10/29 06:33:00;;;;;;;3.13;2.67;;;;;;;14.38;76.17;99028.19;5075763;28;20680;-70
2023/10/29 06:35:26;;;;;;;1.33;1.33;;;;;;;14.36;76.13;99030.25;5076676;28;20319;-70
2023/10/29 06:37:53;;;;;;;1.50;1.40;;;;;;;14.27;76.42;99034.22;5076451;28;20217;-70
2023/10/29 06:40:19;;;;;;;1.77;1.67;;;;;;;14.28;77.04;99046.63;5076803;28;20190;-70
2023/10/29 06:42:46;;;;;;;1.27;1.20;;;;;;;14.34;76.40;99045.75;5076791;28;20198;-70
2023/10/29 06:45:14;;;;;;;1.27;1.27;;;;;;;14.30;76.67;99055.28;5076465;28;20187;-70
2023/10/29 06:47:40;;;;;;;2.63;1.70;;;;;;;14.35;77.42;99066.25;5076716;28;20239;-70
2023/10/29 06:50:07;;;;;;;5.40;2.40;;;;;;;14.31;76.99;99069.56;5076651;28;20531;-70
2023/10/29 06:52:33;;;;;;;2.10;1.33;;;;;;;14.26;76.49;99070.19;5076865;28;20191;-70
2023/10/29 06:55:00;;;;;;;1.60;1.57;;;;;;;14.28;76.93;99061.94;5076322;28;20236;-70
2023/10/29 06:57:26;;;;;;;4.63;1.83;;;;;;;14.31;77.33;99075.75;5076071;28;20747;-70
2023/10/29 06:59:54;;;;;;;1.53;1.53;;;;;;;14.36;76.10;99077.81;5076767;28;20191;-70
2023/10/29 07:02:20;;;;;;;3.53;1.47;;;;;;;14.29;76.52;99077.03;5076620;28;20278;-70
2023/10/29 07:04:47;;;;;;;1.13;1.13;;;;;;;14.33;75.31;99080.94;5076130;28;20186;-71
2023/10/29 07:07:14;;;;;;;4.67;1.23;;;;;;;14.35;74.36;99081.53;5076255;28;20211;-70
2023/10/29 07:09:40;;;;;;;6.47;2.13;;;;;;;14.37;75.39;99087.56;5076014;28;20237;-70
2023/10/29 07:12:07;;;;;;;9.30;2.77;;;;;;;14.45;74.79;99090.81;5076530;28;20205;-70
2023/10/29 07:14:34;;;;;;;3.47;1.50;;;;;;;14.37;75.54;99104.50;5076222;28;20187;-70
2023/10/29 07:17:00;;;;;;;1.30;1.30;;;;;;;14.32;74.94;99098.91;5075762;28;20218;-70
2023/10/29 07:19:27;;;;;;;3.03;1.33;;;;;;;14.35;75.18;99103.03;5076398;28;20183;-71
2023/10/29 07:21:53;;;;;;;1.27;1.23;;;;;;;14.39;75.28;99115.84;5076377;28;20201;-71
2023/10/29 07:24:20;;;;;;;4.20;1.53;;;;;;;14.32;75.74;99115.03;5075724;28;20191;-70
2023/10/29 07:26:46;;;;;;;1.83;1.60;;;;;;;14.32;74.88;99114.22;5075633;28;20202;-70
2023/10/29 07:29:13;;;;;;;1.40;1.40;;;;;;;14.31;75.27;99129.53;5075683;28;20217;-70
2023/10/29 07:31:40;;;;;;;1.73;1.40;;;;;;;14.29;75.54;99123.56;5075875;28;20555;-70
2023/10/29 07:34:06;;;;;;;1.60;1.60;;;;;;;14.26;76.02;99131.22;5075845;28;20196;-70
2023/10/29 07:36:33;;;;;;;1.90;1.90;;;;;;;14.24;75.17;99126.03;5075458;28;20229;-70
2023/10/29 07:39:00;;;;;;;2.87;1.30;;;;;;;14.23;75.66;99129.78;5076290;28;20585;-70
2023/10/29 07:41:27;;;;;;;1.90;1.80;;;;;;;14.25;75.44;99137.63;5075691;28;20187;-70
2023/10/29 07:43:53;;;;;;;1.83;1.63;;;;;;;14.27;75.02;99132.84;5074410;28;20195;-70
2023/10/29 07:46:20;;;;;;;4.13;2.10;;;;;;;14.24;75.23;99136.81;5075692;28;20211;-70
2023/10/29 07:48:46;;;;;;;1.83;1.83;;;;;;;14.18;75.16;99132.25;5075868;28;20233;-70
2023/10/29 07:51:13;;;;;;;2.57;1.57;;;;;;;14.11;75.81;99135.00;5075289;28;20598;-71
2023/10/29 07:53:40;;;;;;;1.67;1.60;;;;;;;14.23;74.85;99113.63;5075500;28;20711;-71
2023/10/29 07:56:11;;;;;;;1.90;1.60;;;;;;;14.21;75.53;99120.28;5075287;28;20712;-70
2023/10/29 07:58:38;;;;;;;1.70;1.63;;;;;;;14.20;75.53;99116.75;5075024;28;20210;-70
2023/10/29 08:01:11;;;;;;;3.10;1.93;;;;;;;14.25;75.06;99137.63;5075270;28;20274;-70
2023/10/29 08:03:42;;;;;;;1.80;1.77;;;;;;;14.30;75.25;99135.94;5075036;28;20207;-70
2023/10/29 08:06:10;;;;;;;2.47;2.07;;;;;;;14.32;75.41;99130.34;5075067;28;20263;-70
2023/10/29 08:08:38;;;;;;;2.07;1.97;;;;;;;14.38;74.75;99165.31;5074919;28;20180;-70
2023/10/29 08:11:05;;;;;;;2.03;1.93;;;;;;;14.54;74.50;99180.94;5074763;28;20265;-70
2023/10/29 08:13:31;;;;;;;1.70;1.63;;;;;;;14.49;74.74;99196.06;5075356;28;20661;-70
2023/10/29 08:15:58;;;;;;;5.90;1.70;;;;;;;14.46;74.50;99218.84;5074661;28;20701;-70
2023/10/29 08:18:25;;;;;;;1.60;1.60;;;;;;;14.43;74.15;99213.03;5074632;28;20218;-70
2023/10/29 08:20:52;;;;;;;3.30;2.37;;;;;;;14.49;73.66;99218.41;5074945;28;20179;-70
2023/10/29 08:23:18;;;;;;;1.37;1.37;;;;;;;14.36;74.43;99226.53;5074935;28;20218;-70
2023/10/29 08:25:45;;;;;;;1.47;1.37;;;;;;;14.37;74.16;99219.28;5074793;28;20186;-69
2023/10/29 08:28:11;;;;;;;4.33;1.40;;;;;;;14.42;74.45;99222.16;5074569;28;20183;-70
2023/10/29 08:30:37;;;;;;;1.80;1.70;;;;;;;14.32;74.28;99211.00;5074486;28;20190;-70
2023/10/29 08:33:04;;;;;;;2.10;1.30;;;;;;;14.42;74.17;99192.59;5074697;28;20194;-70
2023/10/29 08:35:30;;;;;;;1.97;1.67;;;;;;;14.33;73.77;99183.91;5074535;28;20562;-70
2023/10/29 08:37:57;;;;;;;4.20;1.73;;;;;;;14.34;73.74;99180.16;5074140;28;20210;-70
2023/10/29 08:40:24;;;;;;;1.70;1.60;;;;;;;14.29;74.08;99179.16;5074748;28;20178;-70
2023/10/29 08:42:50;;;;;;;6.60;1.70;;;;;;;14.28;74.39;99182.88;5074236;28;20276;-70
2023/10/29 08:45:16;;;;;;;3.10;2.13;;;;;;;14.23;74.56;99188.91;5074433;28;20552;-70
2023/10/29 08:48:03;;;;;;;1.80;1.70;;;;;;;14.21;74.64;99198.22;5074698;28;20261;-70
2023/10/29 08:50:30;;;;;;;2.03;1.87;;;;;;;14.22;74.95;99208.75;5074408;28;20602;-70
2023/10/29 08:52:56;;;;;;;1.50;1.50;;;;;;;14.17;75.15;99209.38;5074359;28;20236;-70
2023/10/29 08:55:23;;;;;;;2.47;1.90;;;;;;;14.15;75.27;99216.03;5073771;28;20602;-70
2023/10/29 08:57:50;;;;;;;3.20;1.60;;;;;;;14.20;75.04;99218.91;5073842;28;20260;-70
2023/10/29 09:00:16;;;;;;;1.73;1.73;;;;;;;14.14;74.50;99217.88;5074080;28;20186;-70
2023/10/29 09:02:43;;;;;;;5.27;1.77;;;;;;;14.25;74.48;99224.47;5074237;28;20218;-70
2023/10/29 09:05:11;;;;;;;8.17;2.10;;;;;;;14.16;75.03;99221.19;5073789;28;20187;-70
2023/10/29 09:07:37;;;;;;;2.00;1.50;;;;;;;14.17;75.23;99222.03;5073718;28;20717;-70
2023/10/29 09:10:04;;;;;;;1.50;1.50;;;;;;;14.20;74.76;99232.34;5073702;28;20559;-67
2023/10/29 09:12:31;;;;;;;1.63;1.53;;;;;;;14.27;74.94;99248.44;5074165;28;20190;-67
2023/10/29 09:14:57;;;;;;;2.20;1.93;;;;;;;14.24;74.56;99249.69;5073903;28;20615;-66
2023/10/29 09:17:24;;;;;;;1.63;1.57;;;;;;;14.18;73.83;99245.97;5073365;28;20214;-66
2023/10/29 09:19:51;;;;;;;1.80;1.80;;;;;;;14.19;74.25;99253.00;5074083;28;20195;-66
2023/10/29 09:22:18;;;;;;;3.37;1.90;;;;;;;14.33;73.07;99259.19;5073507;28;20196;-66
2023/10/29 09:24:45;;;;;;;1.60;1.50;;;;;;;14.30;73.25;99258.78;5073782;28;20198;-66
2023/10/29 09:27:12;;;;;;;6.17;1.73;;;;;;;14.24;74.13;99262.31;5073411;28;20202;-67
2023/10/29 09:29:40;;;;;;;3.30;1.33;;;;;;;14.34;73.34;99260.81;5073483;28;20175;-67
2023/10/29 09:32:07;;;;;;;4.17;2.00;;;;;;;14.31;72.84;99257.72;5073320;28;20206;-67
2023/10/29 09:34:34;;;;;;;1.43;1.43;;;;;;;14.40;73.26;99286.91;5073376;28;20199;-66
2023/10/29 09:37:01;;;;;;;1.53;1.53;;;;;;;14.50;72.15;99295.38;5073238;28;20217;-66
2023/10/29 09:39:27;;;;;;;2.03;1.70;;;;;;;14.40;71.96;99297.66;5073503;28;20562;-66
2023/10/29 09:42:00;;;;;;;1.70;1.60;;;;;;;14.39;72.97;99287.09;5073549;28;20578;-66
2023/10/29 09:44:29;;;;;;;1.30;1.30;;;;;;;14.43;72.09;99275.72;5073514;28;20261;-66
2023/10/29 09:47:09;;;;;;;1.87;1.77;;;;;;;14.35;72.95;99280.47;5073523;28;20206;-66
2023/10/29 09:49:38;;;;;;;1.60;1.50;;;;;;;14.27;72.96;99292.28;5073761;28;20170;-66
2023/10/29 09:52:06;;;;;;;2.50;1.50;;;;;;;14.37;73.13;99302.63;5073473;28;20592;-66
2023/10/29 09:54:32;;;;;;;4.00;1.80;;;;;;;14.42;72.91;99295.59;5073447;28;20178;-66
2023/10/29 09:56:59;;;;;;;1.67;1.67;;;;;;;14.39;72.89;99287.09;5073128;28;20233;-66
2023/10/29 09:59:26;;;;;;;2.23;2.13;;;;;;;14.38;72.84;99282.78;5073149;28;20296;-66
2023/10/29 10:01:52;;;;;;;1.70;1.60;;;;;;;14.37;73.05;99291.88;5073084;28;20186;-66
2023/10/29 10:04:24;;;;;;;6.10;1.20;;;;;;;14.39;73.18;99284.41;5073660;28;20178;-66
2023/10/29 10:06:51;;;;;;;1.30;1.20;;;;;;;14.31;73.89;99288.13;5074347;28;20259;-67
2023/10/29 10:09:18;;;;;;;1.43;1.33;;;;;;;14.44;73.41;99284.59;5077144;28;20190;-67
2023/10/29 10:11:44;;;;;;;1.50;1.50;;;;;;;14.58;73.25;99281.69;5077681;28;20213;-67
2023/10/29 10:14:26;;;;;;;1.30;1.30;;;;;;;14.69;74.02;99282.88;5077099;28;20193;-67
2023/10/29 10:17:09;;;;;;;1.17;1.17;;;;;;;14.82;72.80;99274.75;5077045;28;20253;-67
2023/10/29 10:19:36;;;;;;;1.40;1.37;;;;;;;14.90;71.80;99270.97;5077244;28;20662;-66
2023/10/29 10:22:06;;;;;;;2.20;2.10;;;;;;;15.06;71.71;99267.81;5077308;28;20175;-67
2023/10/29 10:24:41;;;;;;;1.20;1.20;;;;;;;15.34;70.70;99280.88;5077522;28;20228;-66
2023/10/29 10:27:09;;;;;;;2.00;1.40;;;;;;;15.45;69.60;99285.53;5076971;28;20241;-67
2023/10/29 10:29:36;;;;;;;1.43;1.43;;;;;;;15.60;70.36;99282.56;5077322;28;20593;-67
2023/10/29 10:32:03;;;;;;;1.57;1.43;;;;;;;15.60;69.02;99263.72;5076744;28;20194;-67
2023/10/29 10:34:33;;;;;;;1.73;1.63;;;;;;;15.57;69.11;99253.41;5077041;28;20228;-67
2023/10/29 10:37:02;;;;;;;6.53;2.20;;;;;;;15.56;69.45;99259.81;5076599;28;20214;-66
2023/10/29 10:39:31;;;;;;;1.60;1.60;;;;;;;15.38;69.53;99260.53;5076549;28;20186;-66
2023/10/29 10:42:03;;;;;;;1.50;1.50;;;;;;;15.21;70.59;99265.63;5076553;28;20182;-66
2023/10/29 10:44:31;;;;;;;5.40;1.43;;;;;;;15.17;70.41;99267.09;5076755;28;20179;-66
2023/10/29 10:46:59;;;;;;;1.80;1.70;;;;;;;15.12;69.66;99242.69;5077266;28;20289;-67
2023/10/29 10:49:30;;;;;;;2.17;2.03;;;;;;;15.15;69.17;99234.16;5076513;28;20704;-66
2023/10/29 10:52:00;;;;;;;1.93;1.93;;;;;;;15.07;69.37;99253.28;5076345;28;20646;-67
2023/10/29 10:54:29;;;;;;;3.30;1.67;;;;;;;15.00;70.18;99247.94;5076539;28;20175;-67
2023/10/29 10:56:56;;;;;;;2.33;1.43;;;;;;;15.01;70.38;99244.22;5076157;28;20217;-67
2023/10/29 10:59:23;;;;;;;2.30;2.20;;;;;;;15.03;70.19;99249.38;5076217;28;20757;-66
2023/10/29 11:01:50;;;;;;;1.50;1.40;;;;;;;15.02;69.49;99250.44;5076172;28;20187;-66
2023/10/29 11:04:18;;;;;;;1.23;1.23;;;;;;;15.02;69.03;99253.13;5076673;28;20647;-66
2023/10/29 11:06:46;;;;;;;1.80;1.80;;;;;;;14.96;70.62;99257.50;5076103;28;20203;-67
2023/10/29 11:09:14;;;;;;;1.37;1.37;;;;;;;14.94;69.45;99261.44;5076065;28;20174;-66
2023/10/29 11:11:49;;;;;;;1.97;1.87;;;;;;;14.93;69.74;99270.56;5076292;28;20248;-66
2023/10/29 11:14:17;;;;;;;1.93;1.83;;;;;;;14.94;69.27;99281.09;5076219;28;20603;-66
2023/10/29 11:16:49;;;;;;;1.50;1.40;;;;;;;14.90;69.84;99268.28;5076008;28;20225;-67
2023/10/29 11:19:35;;;;;;;2.73;1.33;;;;;;;14.94;70.80;99256.03;5075498;28;20205;-67
2023/10/29 11:22:18;;;;;;;1.63;1.53;;;;;;;14.96;70.62;99265.56;5076308;28;20197;-67
2023/10/29 11:25:11;;;;;;;1.77;1.70;;;;;;;14.92;68.65;99271.59;5076273;28;20191;-66
2023/10/29 11:27:47;;;;;;;1.57;1.57;;;;;;;14.92;69.68;99263.53;5075741;28;20207;-66
2023/10/29 11:30:21;;;;;;;6.03;1.47;;;;;;;14.98;68.74;99263.47;5075944;28;20175;-67
2023/10/29 11:33:05;;;;;;;2.87;1.80;;;;;;;14.92;68.35;99258.13;5075898;28;20179;-66
2023/10/29 11:35:33;;;;;;;2.13;1.10;;;;;;;15.05;68.54;99258.91;5076111;28;20269;-66